This is the latest recevied weather packets stored in our database for station/object HP1CDW-11. If no packets are shown the sender has not sent any weather packets the latest 10 day(s).
| Time | Temp. | Humidity | Pressure | Rain* | Wind** | Luminosity | Snow |
|---|---|---|---|---|---|---|---|
| 1787931348 | 30.56° C | 39% | 1009 hPa | - | - | - | - |
| 1787930748 | 30.56° C | 40% | 1009 hPa | - | - | - | - |
| 1787930148 | 30.56° C | 41% | 1009.2 hPa | - | - | - | - |
| 1787929547 | 30.56° C | 41% | 1009.3 hPa | - | - | - | - |
| 1787928947 | 31.11° C | 43% | 1009.3 hPa | - | - | - | - |
| 1787928346 | 31.11° C | 49% | 1009.5 hPa | - | - | - | - |
| 1787927756 | 30.56° C | 54% | 1009.5 hPa | - | - | - | - |
| 1787927146 | 31.11° C | 62% | 1009.7 hPa | - | - | - | - |
| 1787926546 | 31.11° C | 63% | 1009.9 hPa | - | - | - | - |
| 1787925945 | 31.11° C | 63% | 1010 hPa | - | - | - | - |
| 1787925345 | 31.11° C | 64% | 1010.1 hPa | - | - | - | - |
| 1787924745 | 31.11° C | 64% | 1009.9 hPa | - | - | - | - |
| 1787924144 | 31.11° C | 64% | 1010 hPa | - | - | - | - |
| 1787923544 | 31.11° C | 64% | 1010 hPa | - | - | - | - |
| 1787922944 | 31.11° C | 64% | 1009.9 hPa | - | - | - | - |
| 1787922343 | 31.11° C | 63% | 1009.8 hPa | - | - | - | - |
| 1787921743 | 31.11° C | 63% | 1009.5 hPa | - | - | - | - |
| 1787921143 | 31.11° C | 63% | 1009.5 hPa | - | - | - | - |
| 1787920542 | 31.11° C | 64% | 1009.5 hPa | - | - | - | - |
| 1787919942 | 31.11° C | 63% | 1009.3 hPa | - | - | - | - |
| 1787919342 | 31.11° C | 64% | 1009.2 hPa | - | - | - | - |
| 1787918741 | 31.11° C | 64% | 1009 hPa | - | - | - | - |
| 1787918141 | 31.11° C | 63% | 1009 hPa | - | - | - | - |
| 1787917541 | 31.11° C | 64% | 1008.9 hPa | - | - | - | - |
| 1787916940 | 31.11° C | 63% | 1008.8 hPa | - | - | - | - |
* Rain since midnight (hover to see other rain measurements)
** Current wind speed in m/s (hover to see current wind gust speed)